ADDS METAR Data INFO
IDs: Format: Raw Decoded Include TAF

Data at: 0901 UTC 20 Oct 2017

KFWN 200853Z AUTO 25003KT 10SM CLR 07/06 A3011 RMK AO2 SLP196 T00670061 53005
KFWN 200753Z AUTO 00000KT 10SM CLR 07/07 A3010 RMK AO2 SLP193 T00720067
KFWN 200653Z AUTO 00000KT 10SM CLR 08/07 A3010 RMK AO2 SLP190 T00780072
KFWN 200553Z AUTO 00000KT 10SM CLR 09/08 A3010 RMK AO2 SLP191 T00940078 10139 20083 53003
KFWN 200453Z AUTO 00000KT 10SM CLR 09/08 A3009 RMK AO2 SLP188 T00890078 402170044
KFWN 200353Z AUTO 00000KT 10SM CLR 09/07 A3009 RMK AO2 SLP187 T00890072
KFWN 200253Z AUTO 00000KT 10SM CLR 09/07 A3009 RMK AO2 SLP189 T00940072 50003
KFWN 200153Z AUTO 00000KT 10SM CLR 10/08 A3009 RMK AO2 SLP190 T01000078
KFWN 200053Z AUTO 00000KT 10SM CLR 12/08 A3009 RMK AO2 SLP190 T01170078
KFWN 192353Z AUTO 00000KT 10SM CLR 13/08 A3008 RMK AO2 SLP187 T01280078 10217 20128 53004
KFWN 192253Z AUTO 24003KT 10SM CLR 15/08 A3008 RMK AO2 SLP186 T01500078
KFWN 192153Z AUTO 22005KT 10SM CLR 19/07 A3006 RMK AO2 SLP180 T01940067
KFWN 192053Z AUTO 21006G16KT 10SM CLR 21/07 A3007 RMK AO2 SLP182 T02110067 56021
KFWN 191953Z AUTO 23007KT 10SM CLR 22/07 A3008 RMK AO2 SLP186 T02170067
KFWN 191853Z AUTO 22008G16KT 10SM CLR 21/07 A3010 RMK AO2 SLP193 T02110067
KFWN 191753Z AUTO 21008KT 10SM CLR 21/07 A3013 RMK AO2 SLP202 60000 T02110072 10211 20050 58030
KFWN 191653Z AUTO 22010G16KT 10SM CLR 20/07 A3017 RMK AO2 SLP217 T02000067
KFWN 191553Z AUTO 22009G16KT 180V250 10SM CLR 18/07 A3020 RMK AO2 SLP226 T01830072
KFWN 191453Z AUTO 20007KT 10SM CLR 16/09 A3022 RMK AO2 SLP233 60000 T01560089 58007
KFWN 191353Z AUTO 21004KT 9SM CLR 12/09 A3023 RMK AO2 SLP238 T01220094
KFWN 191253Z AUTO 00000KT 6SM BR CLR 08/08 A3024 RMK AO2 RAE17 SLP241 P0000 T00830078
KFWN 191153Z AUTO 00000KT 5SM -RA BR CLR 05/04 A3024 RMK AO2 RAB49 SLP241 P0000 60000 T00500044 10061 20044 57004
KFWN 191053Z AUTO 00000KT 8SM CLR 04/04 A3024 RMK AO2 SLP242 T00440039
KFWN 190953Z AUTO 00000KT 9SM CLR 04/04 A3025 RMK AO2 SLP245 T00440044
KFWN 190853Z AUTO 00000KT 10SM CLR 05/04 A3025 RMK AO2 SLP245 T00500044 55004
KFWN 190753Z AUTO 00000KT 10SM CLR 06/05 A3025 RMK AO2 SLP243 T00560050
KFWN 190653Z AUTO 00000KT 10SM CLR 06/05 A3026 RMK AO2 SLP245 T00560050
KFWN 190553Z AUTO 00000KT 10SM CLR 06/06 A3026 RMK AO2 SLP248 T00610056 10122 20061 58007
KFWN 190453Z AUTO 00000KT 10SM CLR 07/06 A3027 RMK AO2 SLP252 T00670061 402220017
KFWN 190353Z AUTO 00000KT 10SM CLR 07/07 A3028 RMK AO2 SLP254 T00720072
KFWN 190253Z AUTO 00000KT 10SM CLR 08/08 A3028 RMK AO2 SLP256 T00830078 50004
KFWN 190153Z AUTO 00000KT 10SM CLR 09/08 A3029 RMK AO2 SLP259 T00890083
KFWN 190053Z AUTO 00000KT 10SM CLR 10/09 A3029 RMK AO2 SLP257 T01000089
KFWN 182353Z AUTO 00000KT 10SM CLR 12/10 A3027 RMK AO2 SLP253 T01220100 10222 20117 53012
KFWN 182253Z AUTO 00000KT 10SM CLR 14/09 A3026 RMK AO2 SLP248 T01440094
KFWN 182153Z AUTO 00000KT 10SM CLR 19/09 A3025 RMK AO2 SLP243 T01890094